Oconto, Wisconsin
Current Conditions -  °F | °C
As of 11:15 PM on Sunday 19 Oct 2014 (Local Time) from KOCQ Reporting Station
Scattered Clouds Scattered Clouds  
Wind Chill: 48°   Ceiling: Unl
Heat Index: 48°   Visibility: 10mi
Dew Point: 44°   Wind: 3mph
Humidity: 86%   Direction: 220°SW
Pressure: 29.76"   Gusts: NA
Location:  44.89°N, 87.86°W
Report Text: KOCQ 200415Z AUTO 22003KT 10SM SCT050 09/07 A2976 RMK AO1 T00880065
Loading
Personal Weather Stations






























Interactive Weather Map New forecast layout! Learn more

10-Day Weather Forecast

Advertisements
Track Severe Weather on mobile